createdAt,value
2023-05-13T12:50:14.396Z,77.30
2023-05-13T12:52:42.554Z,80.40
2023-05-13T12:55:12.394Z,82.50
2023-05-13T12:57:42.227Z,81.40
2023-05-13T13:00:11.576Z,82.20
2023-05-13T13:02:54.988Z,79.30
2023-05-13T13:05:25.700Z,79.60
2023-05-13T13:08:06.265Z,81.80
2023-05-13T13:10:34.871Z,84.10
2023-05-13T13:13:03.047Z,84.80
2023-05-13T13:15:31.045Z,83.60
2023-05-13T13:17:59.101Z,84.90
2023-05-13T13:20:28.512Z,79.90
2023-05-13T13:23:04.424Z,81.00
2023-05-13T13:25:33.082Z,80.60
2023-05-13T13:28:01.113Z,78.90
2023-05-13T13:30:29.280Z,76.70
2023-05-13T13:32:57.346Z,77.00
2023-05-13T13:35:25.420Z,75.20
2023-05-13T13:37:56.010Z,76.90
2023-05-13T13:40:24.352Z,78.10
2023-05-13T13:42:52.573Z,81.10
2023-05-13T13:45:24.092Z,81.10
2023-05-13T13:47:52.213Z,82.40
2023-05-13T13:50:20.386Z,83.90
2023-05-13T13:52:48.574Z,82.90
2023-05-13T13:55:19.076Z,81.00
2023-05-13T13:57:47.102Z,82.70
2023-05-13T14:00:16.524Z,81.40
2023-05-13T14:02:45.045Z,81.80
2023-05-13T14:05:31.355Z,78.00
2023-05-13T14:07:59.355Z,80.70
2023-05-13T14:10:28.825Z,76.60
2023-05-13T14:12:56.821Z,77.60
2023-05-13T14:15:28.607Z,77.30
2023-05-13T14:17:56.972Z,76.90
2023-05-13T14:20:25.697Z,78.90
2023-05-13T14:22:53.761Z,79.40
2023-05-13T14:25:21.798Z,82.80
2023-05-13T14:28:02.398Z,86.30
2023-05-13T14:30:30.481Z,89.40
2023-05-13T14:33:00.618Z,90.00
2023-05-13T14:35:28.736Z,90.30
2023-05-13T14:37:56.924Z,91.60
2023-05-13T14:40:25.117Z,93.00
2023-05-13T14:42:53.152Z,94.40
2023-05-13T14:45:22.806Z,93.00
2023-05-13T14:47:53.805Z,95.00
2023-05-13T14:50:22.415Z,94.80
2023-05-13T14:52:50.665Z,95.00
2023-05-13T14:55:18.888Z,95.60
2023-05-13T14:57:56.330Z,96.30
2023-05-13T15:00:25.693Z,96.80
2023-05-13T15:02:54.375Z,96.20
2023-05-13T15:05:22.494Z,96.20
2023-05-13T15:07:50.514Z,96.50
2023-05-13T15:10:18.599Z,96.20
2023-05-13T15:12:46.624Z,96.10
2023-05-13T15:15:14.640Z,96.90
2023-05-13T15:17:44.079Z,96.20
2023-05-13T15:20:13.263Z,94.60
2023-05-13T15:22:44.629Z,94.10
2023-05-13T15:25:12.693Z,95.60
2023-05-13T15:27:41.442Z,95.80
2023-05-13T15:30:11.247Z,95.80
2023-05-13T15:32:39.235Z,96.40
2023-05-13T15:35:09.507Z,97.40
2023-05-13T15:37:45.326Z,96.70
2023-05-13T15:40:13.868Z,96.40
2023-05-13T15:42:42.903Z,96.90
2023-05-13T15:45:11.295Z,97.00
2023-05-13T15:47:39.418Z,97.70
2023-05-13T15:50:10.828Z,97.70
2023-05-13T15:52:40.869Z,97.30
2023-05-13T15:55:09.028Z,98.30
2023-05-13T15:57:37.153Z,98.00
2023-05-13T16:00:06.072Z,98.30
2023-05-13T16:02:39.049Z,98.00
2023-05-13T16:05:09.530Z,98.10
2023-05-13T16:07:37.576Z,98.10
2023-05-13T16:10:07.241Z,98.50
2023-05-13T16:12:35.541Z,98.70
2023-05-13T16:15:03.557Z,97.00
2023-05-13T16:17:31.704Z,99.50
2023-05-13T16:19:59.868Z,99.00
2023-05-13T16:22:32.768Z,98.10
2023-05-13T16:25:02.151Z,97.60
2023-05-13T16:27:30.746Z,97.00
2023-05-13T16:29:59.504Z,95.20
2023-05-13T16:32:29.110Z,96.40
2023-05-13T16:34:57.463Z,94.60
2023-05-13T16:37:25.476Z,95.70
2023-05-13T16:39:54.832Z,95.90
2023-05-13T16:42:22.797Z,96.60
2023-05-13T16:44:50.769Z,95.30
2023-05-13T16:47:18.831Z,95.10
2023-05-13T16:49:49.837Z,93.10
2023-05-13T16:52:18.081Z,94.60
2023-05-13T16:54:46.125Z,94.40
2023-05-13T16:57:15.606Z,94.40
2023-05-13T16:59:43.834Z,94.40
2023-05-13T17:02:11.912Z,94.40
2023-05-13T17:04:39.939Z,94.70
2023-05-13T17:07:08.438Z,94.20
2023-05-13T17:09:36.586Z,94.00
2023-05-13T17:12:04.920Z,93.80
2023-05-13T17:14:34.710Z,94.30
2023-05-13T17:17:03.587Z,93.10
2023-05-13T17:19:31.681Z,92.60
2023-05-13T17:21:59.662Z,91.90
2023-05-13T17:24:29.337Z,92.60
2023-05-13T17:26:57.441Z,92.20
2023-05-13T17:29:25.934Z,93.40
2023-05-13T17:31:55.488Z,93.20
2023-05-13T17:34:23.501Z,93.40
2023-05-13T17:36:51.506Z,93.40
2023-05-13T17:39:19.489Z,93.30
2023-05-13T17:41:47.496Z,93.10
2023-05-13T17:44:15.491Z,94.00
2023-05-13T17:46:43.462Z,93.70
2023-05-13T17:49:12.874Z,94.10
2023-05-13T17:51:41.908Z,95.00
2023-05-13T17:54:11.337Z,95.80
2023-05-13T17:56:39.394Z,95.10
2023-05-13T17:59:08.373Z,95.10
2023-05-13T18:01:36.367Z,95.50
2023-05-13T18:04:04.450Z,96.00
2023-05-13T18:06:33.842Z,96.30
2023-05-13T18:09:02.545Z,97.40
2023-05-13T18:11:30.618Z,97.70
2023-05-13T18:13:58.650Z,97.90
2023-05-13T18:16:26.722Z,98.30
2023-05-13T18:18:54.845Z,97.90
2023-05-13T18:21:24.205Z,97.80
2023-05-13T18:23:53.714Z,99.10
2023-05-13T18:26:23.069Z,99.60
2023-05-13T18:28:51.215Z,99.90
2023-05-13T18:31:19.302Z,99.60
2023-05-13T18:33:47.403Z,99.90
2023-05-13T18:36:15.571Z,99.50
2023-05-13T18:38:45.472Z,99.10
2023-05-13T18:41:15.154Z,99.00
2023-05-13T18:43:43.187Z,99.30
2023-05-13T18:46:11.701Z,99.20
2023-05-13T18:48:39.804Z,99.20
2023-05-13T18:51:07.871Z,99.60
2023-05-13T18:53:35.953Z,99.90
2023-05-13T18:56:03.911Z,99.90
2023-05-13T18:58:33.321Z,99.90
2023-05-13T19:01:01.894Z,99.90
2023-05-13T19:03:30.194Z,99.90
2023-05-13T19:05:58.278Z,99.90
2023-05-13T19:08:26.400Z,99.90
2023-05-13T19:10:54.439Z,99.90
2023-05-13T19:13:22.878Z,99.90
2023-05-13T19:15:52.340Z,99.90
2023-05-13T19:18:20.662Z,99.90
2023-05-13T19:20:48.693Z,99.90
2023-05-13T19:23:16.757Z,99.90
2023-05-13T19:25:44.852Z,99.90
2023-05-13T19:28:14.122Z,99.90
2023-05-13T19:30:42.205Z,99.90
2023-05-13T19:33:11.725Z,99.90
2023-05-13T19:35:39.825Z,99.90
2023-05-13T19:38:07.860Z,99.90
2023-05-13T19:40:36.053Z,99.90
2023-05-13T19:43:04.109Z,99.90
2023-05-13T19:45:32.102Z,99.90
2023-05-13T19:48:00.204Z,99.90
2023-05-13T19:50:29.629Z,99.90
2023-05-13T19:52:57.747Z,99.90
2023-05-13T19:55:26.859Z,99.90
2023-05-13T19:57:54.967Z,99.90
2023-05-13T20:00:23.421Z,99.90
2023-05-13T20:02:51.724Z,99.90
2023-05-13T20:05:20.050Z,99.90
2023-05-13T20:07:49.399Z,99.90
2023-05-13T20:10:17.502Z,99.90
2023-05-13T20:12:45.987Z,99.90
2023-05-13T20:15:14.054Z,99.90
2023-05-13T20:17:42.699Z,99.90
2023-05-13T20:20:11.366Z,99.90
2023-05-13T20:22:39.344Z,99.90
2023-05-13T20:25:09.552Z,99.90
2023-05-13T20:27:37.502Z,99.90
2023-05-13T20:30:06.155Z,99.90
2023-05-13T20:32:34.281Z,99.90
2023-05-13T20:35:02.457Z,99.90
2023-05-13T20:37:30.414Z,99.90
2023-05-13T20:39:58.564Z,99.90
2023-05-13T20:42:27.965Z,99.90
2023-05-13T20:44:56.011Z,99.90
2023-05-13T20:47:23.987Z,99.90
2023-05-13T20:49:51.980Z,99.90
2023-05-13T20:52:20.016Z,99.90
2023-05-13T20:54:48.350Z,99.90
2023-05-13T20:57:16.434Z,99.90
2023-05-13T20:59:45.792Z,99.90
2023-05-13T21:02:13.872Z,99.90
2023-05-13T21:04:41.865Z,99.90
2023-05-13T21:07:10.798Z,99.90
2023-05-13T21:09:38.806Z,99.90
2023-05-13T21:12:07.589Z,99.90
2023-05-13T21:14:35.643Z,99.90
2023-05-13T21:17:05.181Z,99.90
2023-05-13T21:19:33.174Z,99.90
2023-05-13T21:22:01.697Z,99.90
2023-05-13T21:24:29.660Z,99.90
2023-05-13T21:26:57.718Z,99.90
2023-05-13T21:29:25.794Z,99.90
2023-05-13T21:31:54.608Z,99.90
2023-05-13T21:34:24.046Z,99.90
2023-05-13T21:36:52.084Z,99.90
2023-05-13T21:39:20.113Z,99.90
2023-05-13T21:41:48.132Z,99.90
2023-05-13T21:44:16.237Z,99.90
2023-05-13T21:46:44.321Z,99.90
2023-05-13T21:49:12.598Z,99.90
2023-05-13T21:51:42.348Z,99.90
2023-05-13T21:54:10.925Z,99.90
2023-05-13T21:56:39.000Z,99.90
2023-05-13T21:59:07.072Z,99.90
2023-05-13T22:01:35.101Z,99.90
2023-05-13T22:04:03.118Z,99.90
2023-05-13T22:06:31.758Z,99.90
2023-05-13T22:09:01.713Z,99.90
2023-05-13T22:11:29.735Z,99.90
2023-05-13T22:13:58.058Z,99.90
2023-05-13T22:16:26.207Z,99.90
2023-05-13T22:18:55.761Z,99.90
2023-05-13T22:21:23.793Z,99.90
2023-05-13T22:23:51.809Z,99.90
2023-05-13T22:26:21.885Z,99.90
2023-05-13T22:28:49.908Z,99.90
2023-05-13T22:31:18.197Z,99.90
2023-05-13T22:33:46.216Z,99.90
2023-05-13T22:36:14.666Z,99.90
2023-05-13T22:38:43.196Z,99.90
2023-05-13T22:41:12.017Z,99.90
2023-05-13T22:43:42.110Z,99.90
2023-05-13T22:46:10.198Z,99.90
2023-05-13T22:48:38.177Z,99.90
2023-05-13T22:51:06.215Z,99.90
2023-05-13T22:53:34.202Z,99.90
2023-05-13T22:56:02.242Z,99.90
2023-05-13T22:58:30.386Z,99.90
2023-05-13T23:00:59.986Z,99.90
2023-05-13T23:03:28.009Z,99.90
2023-05-13T23:05:56.727Z,99.90
2023-05-13T23:08:24.826Z,99.90
2023-05-13T23:10:52.834Z,99.90
2023-05-13T23:13:20.866Z,99.90
2023-05-13T23:15:49.388Z,99.90
2023-05-13T23:18:18.758Z,99.90
2023-05-13T23:20:50.928Z,99.90
2023-05-13T23:23:19.008Z,99.90
2023-05-13T23:25:47.195Z,99.90
2023-05-13T23:28:15.572Z,99.90
2023-05-13T23:30:43.732Z,99.90
2023-05-13T23:33:11.817Z,99.90
2023-05-13T23:35:41.151Z,99.90
2023-05-13T23:38:09.196Z,99.90
2023-05-13T23:40:37.354Z,99.90
2023-05-13T23:43:05.452Z,99.90
2023-05-13T23:45:33.427Z,99.90
2023-05-13T23:48:01.556Z,99.90
2023-05-13T23:50:29.650Z,99.90
2023-05-13T23:52:59.035Z,99.90
2023-05-13T23:55:27.048Z,99.90
2023-05-13T23:57:55.165Z,99.90
